Aviation Digital Data Service (ADDS)

Output produced by METARs form (2028 UTC 17 November 2019)
found at http://www.aviationweather.gov/metar/data/
 
METAR text: RKSW 170134Z KT RMK WR24
Conditions at: RKSW (SUWON (US/KOR-AF, KR) observed 0134 UTC 17 November 2019
Temperature: missing
Dewpoint: missing
Pressure (altimeter): missing
Winds: missing
Visibility: missing
Ceiling: unknown
Clouds: missing
Weather: no significant weather observed at this time

METAR text: RKSW 170127Z 07006KT 9000 -RA BR SCT080 BKN100 11/04 A3017 RMK CIG100
Conditions at: RKSW (SUWON (US/KOR-AF, KR) observed 0127 UTC 17 November 2019
Temperature: 11.0°C (52°F)
Dewpoint: 4.0°C (39°F) [RH = 62%]
Pressure (altimeter): 30.17 inches Hg (1021.8 mb)
Winds: from the ENE (70 degrees) at 7 MPH (6 knots; 3.1 m/s)
Visibility: 6 miles ( 9 km)
Ceiling: 10000 feet AGL
Clouds: scattered clouds at 8000 feet AGL
broken clouds at 10000 feet AGL
Weather: -RA BR  (light rain, mist)

METAR text: RKSW 170124Z 07006KT 9999 -RA SCT080 BKN100 11/04 A3017 RMK CIG100
Conditions at: RKSW (SUWON (US/KOR-AF, KR) observed 0124 UTC 17 November 2019
Temperature: 11.0°C (52°F)
Dewpoint: 4.0°C (39°F) [RH = 62%]
Pressure (altimeter): 30.17 inches Hg (1021.8 mb)
Winds: from the ENE (70 degrees) at 7 MPH (6 knots; 3.1 m/s)
Visibility: 6 or more miles (10+ km)
Ceiling: 10000 feet AGL
Clouds: scattered clouds at 8000 feet AGL
broken clouds at 10000 feet AGL
Weather: -RA  (light rain)

METAR text: RKSW 170025Z 08005KT 9999 SCT080 BKN100 10/04 A3017 RMK CIG100
Conditions at: RKSW (SUWON (US/KOR-AF, KR) observed 0025 UTC 17 November 2019
Temperature: 10.0°C (50°F)
Dewpoint: 4.0°C (39°F) [RH = 66%]
Pressure (altimeter): 30.17 inches Hg (1021.8 mb)
Winds: from the E (80 degrees) at 6 MPH (5 knots; 2.6 m/s)
Visibility: 6 or more miles (10+ km)
Ceiling: 10000 feet AGL
Clouds: scattered clouds at 8000 feet AGL
broken clouds at 10000 feet AGL
Weather: no significant weather observed at this time

METAR text: RKSW 170010Z 08005KT 9999 -RA SCT080 BKN100 10/03 A3017 RMK CIG100
Conditions at: RKSW (SUWON (US/KOR-AF, KR) observed 0010 UTC 17 November 2019
Temperature: 10.0°C (50°F)
Dewpoint: 3.0°C (37°F) [RH = 62%]
Pressure (altimeter): 30.17 inches Hg (1021.8 mb)
Winds: from the E (80 degrees) at 6 MPH (5 knots; 2.6 m/s)
Visibility: 6 or more miles (10+ km)
Ceiling: 10000 feet AGL
Clouds: scattered clouds at 8000 feet AGL
broken clouds at 10000 feet AGL
Weather: -RA  (light rain)